الصفحة الرئيسية
METAR-TAF:

METAR-TAF

مطار :

جبل طارق, جبل طارق

مطار جبل طارق

دائرة عرض: 36-09N, خط طول: 005-21W, ارتفاع: 5 متر

مراقبة الطقس الحالي

تاريخ ووقت الإصدار 1ساعة و 14 دقيقة قبل الساعة 01:50UTC
ريح 11 عقدة من الشرق/الجنوب الشرقي تتزايد حتى 21 عقدة
درجة الحرارة 17°درجة مئوية
الرطوبة 88%
ضغط 1014 hPa
الرؤية 10 كم أو أكثر

METAR: LXGB 220150Z AUTO 12011G21KT 9999 // FEW015/// SCT021/// BKN026/// 17/15 Q1014

زمن: 05:04 (03:04 UTC)

توقعات

تاريخ ووقت الإصدار 12ساعات و 56 دقيقة قبل الساعة 14:08UTC
التوقعات صالحة من21 الساعة 14 UTC إلى 21 الساعة 21 UTC
ريح 22 عقدة من الشرق تتزايد حتى 32 عقدة
الرؤية 10 كم أو أكثر
غيوم قليلة على ارتفاع 1200 قدم
غيوم مفككة على ارتفاع 3000 قدم
مؤقت
من 21 الساعة 14 UTC إلى 21 الساعة 18 UTC
الرؤية: 7000 متر
غيوم مفككة على ارتفاع 1600 قدم
مطر خفيف, العجاج
أصبح
من 21 الساعة 15 UTC إلى 21 الساعة 18 UTC
ريح 15 عقدة من الشرق

TAF: LXGB 211408Z 2114/2121 10022G32KT 9999 FEW012 BKN030 530002 TEMPO 2114/2118 7000 -RA HZ BKN016 BECMG 2115/2118 09015KT 50////

أرصاد الطقس والتوقعات من أكثر من 4000 مطار (تقارير الطقس للمطار METAR والتنبؤ بالطقس بالمطارTAF).

المحطات المتاحة هي النقط الصفراء والحمراء على الخريطة.

حرك المؤشر فوق النقطة لمعرفة اسم المحطة.

ثم انقر لمعرفة أرصاد وتوقعات الطقس.

لتغيير الخارطة: اضغط على الأزرار الخضراء مع رمز الصليب الأسود للتكبير. على الزر الأخضر مع شرطة للتصغير، أو على الأسهم الخضراء للخرائط المجاورة.


METAR-TAF: